createdAt,value
2022-10-28T05:38:35.385Z,16.45
2022-10-28T05:41:01.948Z,16.88
2022-10-28T05:43:28.454Z,18.13
2022-10-28T05:45:55.539Z,17.42
2022-10-28T05:48:22.337Z,17.75
2022-10-28T05:50:48.933Z,17.63
2022-10-28T05:53:15.760Z,17.70
2022-10-28T05:55:46.675Z,18.75
2022-10-28T05:58:14.423Z,18.63
2022-10-28T06:00:40.920Z,18.98
2022-10-28T06:03:12.141Z,19.73
2022-10-28T06:05:42.952Z,19.27
2022-10-28T06:08:10.073Z,21.38
2022-10-28T06:10:36.531Z,23.95
2022-10-28T06:13:01.535Z,23.75
2022-10-28T06:15:28.129Z,23.92
2022-10-28T06:17:54.623Z,25.40
2022-10-28T06:20:21.110Z,22.80
2022-10-28T06:22:47.740Z,20.33
2022-10-28T06:25:14.349Z,20.92
2022-10-28T06:27:41.029Z,20.98
2022-10-28T06:30:07.868Z,22.17
2022-10-28T06:32:34.417Z,23.20
2022-10-28T06:35:00.886Z,24.02
2022-10-28T06:37:27.345Z,24.02
2022-10-28T06:39:54.061Z,23.17
2022-10-28T06:42:20.471Z,23.90
2022-10-28T06:44:48.036Z,26.25
2022-10-28T06:47:15.990Z,28.92
2022-10-28T06:49:42.469Z,28.35
2022-10-28T06:52:09.040Z,30.42
2022-10-28T06:54:35.632Z,31.67
2022-10-28T06:57:02.093Z,32.38
2022-10-28T06:59:28.588Z,31.50
2022-10-28T07:01:55.193Z,32.60
2022-10-28T07:04:21.828Z,28.13
2022-10-28T07:06:49.930Z,31.70
2022-10-28T07:09:18.578Z,30.55
2022-10-28T07:11:50.136Z,32.17
2022-10-28T07:14:20.015Z,32.53
2022-10-28T07:16:46.504Z,32.10
2022-10-28T07:19:13.013Z,29.98
2022-10-28T07:21:39.555Z,32.25
2022-10-28T07:24:06.143Z,33.80
2022-10-28T07:26:32.574Z,31.70
2022-10-28T07:28:59.071Z,31.23
2022-10-28T07:31:27.709Z,30.77
2022-10-28T07:33:54.485Z,28.00
2022-10-28T07:36:21.256Z,28.17
2022-10-28T07:38:51.765Z,27.42
2022-10-28T07:41:19.450Z,27.83
2022-10-28T07:43:46.169Z,26.20
2022-10-28T07:46:12.651Z,28.08
2022-10-28T07:48:39.240Z,28.67
2022-10-28T07:51:06.532Z,26.63
2022-10-28T07:53:33.063Z,29.23
2022-10-28T07:56:00.616Z,28.52
2022-10-28T07:58:27.227Z,27.47
2022-10-28T08:00:53.959Z,29.13
2022-10-28T08:03:20.854Z,28.25
2022-10-28T08:05:47.385Z,26.52
2022-10-28T08:08:13.872Z,27.45
2022-10-28T08:10:40.344Z,30.17
2022-10-28T08:13:07.150Z,27.17
2022-10-28T08:15:33.676Z,28.10
2022-10-28T08:18:00.218Z,27.92
2022-10-28T08:20:26.771Z,26.90
2022-10-28T08:22:53.392Z,27.40
2022-10-28T08:25:20.138Z,26.00
2022-10-28T08:27:46.617Z,28.10
2022-10-28T08:30:13.165Z,27.88
2022-10-28T08:32:39.676Z,28.20
2022-10-28T08:35:06.360Z,26.65
2022-10-28T08:37:32.849Z,28.27
2022-10-28T08:39:59.371Z,27.58
2022-10-28T08:42:38.527Z,27.05
2022-10-28T08:45:15.854Z,27.63
2022-10-28T08:47:48.560Z,28.52
2022-10-28T08:50:16.962Z,27.40
2022-10-28T08:52:50.053Z,26.77
2022-10-28T08:55:16.563Z,27.80
2022-10-28T08:57:57.467Z,27.55
2022-10-28T09:00:32.005Z,26.90
2022-10-28T09:02:58.550Z,26.52
2022-10-28T09:05:26.149Z,27.50
2022-10-28T09:07:53.322Z,25.23
2022-10-28T09:10:27.952Z,26.45
2022-10-28T09:13:10.493Z,24.48
2022-10-28T09:15:42.575Z,22.63
2022-10-28T09:18:11.792Z,23.25
2022-10-28T09:20:58.507Z,24.60
2022-10-28T09:23:32.159Z,24.65
2022-10-28T09:26:17.575Z,22.92
2022-10-28T09:28:59.365Z,21.60
2022-10-28T09:31:37.839Z,20.80
2022-10-28T09:34:23.172Z,26.08
2022-10-28T09:36:55.790Z,25.08
2022-10-28T09:39:28.254Z,20.77
2022-10-28T09:41:57.148Z,20.67
2022-10-28T09:44:42.489Z,20.08
2022-10-28T09:47:15.027Z,20.20
2022-10-28T09:49:41.799Z,19.55
2022-10-28T09:52:15.354Z,18.90
2022-10-28T09:54:46.061Z,19.60
2022-10-28T09:57:15.017Z,19.55
2022-10-28T09:59:43.882Z,18.77
2022-10-28T10:02:25.488Z,35.88
2022-10-28T10:04:52.193Z,19.67
2022-10-28T10:07:25.756Z,17.83
2022-10-28T10:09:52.312Z,18.33
2022-10-28T10:12:18.923Z,17.95
2022-10-28T10:14:47.760Z,16.92
2022-10-28T10:17:32.072Z,16.67
2022-10-28T10:20:03.084Z,16.58
2022-10-28T10:22:33.605Z,17.38
2022-10-28T10:25:00.106Z,16.65
2022-10-28T10:27:27.606Z,15.82
2022-10-28T10:29:54.478Z,16.38
2022-10-28T10:32:31.544Z,15.63
2022-10-28T10:35:06.742Z,15.65
2022-10-28T10:37:34.736Z,15.48
2022-10-28T10:40:03.580Z,14.65
2022-10-28T10:42:30.129Z,14.40
2022-10-28T10:45:01.600Z,12.73
2022-10-28T10:47:28.465Z,12.90
2022-10-28T10:50:14.864Z,11.55
2022-10-28T10:52:48.085Z,10.85
2022-10-28T10:55:20.930Z,10.38
2022-10-28T10:57:47.829Z,10.68
2022-10-28T11:06:43.511Z,9.85
2022-10-28T11:09:38.342Z,10.32
2022-10-28T11:12:15.278Z,9.68
2022-10-28T11:14:53.616Z,8.95
2022-10-28T11:24:06.048Z,8.85
2022-10-28T11:26:35.224Z,9.20
2022-10-28T11:29:12.751Z,8.13
2022-10-28T11:31:57.790Z,8.43
2022-10-28T11:34:42.680Z,8.63
2022-10-28T11:37:19.962Z,8.23
2022-10-28T11:39:49.330Z,8.02
2022-10-28T11:42:18.567Z,8.38
2022-10-28T11:44:56.800Z,7.38
2022-10-28T11:47:26.050Z,7.82
2022-10-28T11:50:08.052Z,5.95
2022-10-28T11:52:45.144Z,6.43
2022-10-28T11:55:12.149Z,7.55
2022-10-28T11:58:07.952Z,9.35
2022-10-28T12:00:45.531Z,8.50
2022-10-28T12:03:30.485Z,7.28
2022-10-28T12:10:29.005Z,7.78
2022-10-28T12:12:58.846Z,7.68
2022-10-28T12:15:46.754Z,7.18
2022-10-28T12:18:16.142Z,6.05
2022-10-28T12:20:47.902Z,6.03
2022-10-28T12:23:17.027Z,6.22
2022-10-28T12:25:46.404Z,6.32
2022-10-28T12:28:28.188Z,6.57
2022-10-28T12:30:55.931Z,6.45
2022-10-28T12:33:25.491Z,5.93
2022-10-28T12:35:55.402Z,5.78
2022-10-28T12:38:38.676Z,6.25
2022-10-28T12:41:08.354Z,5.25
2022-10-28T12:43:58.212Z,5.22
2022-10-28T15:42:40.054Z,7.97
2022-10-28T15:45:15.668Z,7.75
2022-10-28T15:47:45.303Z,6.20
2022-10-28T16:15:24.407Z,6.82
2022-10-28T16:17:51.637Z,7.13
2022-10-28T18:06:53.681Z,5.82
2022-10-28T18:26:39.591Z,7.65
2022-10-28T18:33:52.579Z,7.97
2022-10-28T21:28:43.536Z,6.55
2022-10-28T21:31:28.968Z,7.07
2022-10-28T21:34:01.818Z,7.82
2022-10-28T21:36:41.138Z,7.82
2022-10-28T21:40:24.966Z,6.82
2022-10-28T21:56:32.621Z,6.90
2022-10-28T22:13:45.058Z,7.25
2022-10-28T22:29:52.401Z,7.45
2022-10-28T22:32:21.335Z,7.65
2022-10-28T22:34:47.987Z,6.97
2022-10-28T22:44:43.030Z,8.20
2022-10-28T22:47:09.678Z,7.30
2022-10-28T22:49:36.370Z,7.82
2022-10-28T22:52:03.028Z,7.60
2022-10-28T22:54:29.633Z,8.02
2022-10-28T22:56:56.355Z,7.80
2022-10-28T22:59:23.012Z,7.40
2022-10-28T23:06:08.522Z,7.35
